createdAt,value
2023-05-09T00:00:10.459Z,2
2023-05-09T00:01:20.185Z,2.7
2023-05-09T00:02:30.030Z,2.8
2023-05-09T00:03:38.677Z,2.3
2023-05-09T00:04:48.436Z,2.9
2023-05-09T00:05:57.191Z,3.1
2023-05-09T00:07:05.951Z,1.9
2023-05-09T00:08:15.764Z,2.1
2023-05-09T00:09:25.556Z,2.2
2023-05-09T00:10:35.294Z,4.2
2023-05-09T00:11:45.152Z,2.9
2023-05-09T00:12:54.032Z,3.3
2023-05-09T00:14:03.555Z,2.7
2023-05-09T00:15:12.501Z,2.9
2023-05-09T00:16:22.127Z,2.5
2023-05-09T00:17:31.870Z,2.6
2023-05-09T00:18:41.565Z,4
2023-05-09T00:19:51.343Z,3.8
2023-05-09T00:21:01.138Z,3.6
2023-05-09T00:22:09.834Z,4.5
2023-05-09T00:23:20.644Z,3.2
2023-05-09T00:24:30.557Z,2.8
2023-05-09T00:25:40.363Z,3.7
2023-05-09T00:26:50.076Z,3.4
2023-05-09T00:27:59.951Z,2.9
2023-05-09T00:29:09.613Z,2.6
2023-05-09T00:30:19.477Z,2.1
2023-05-09T00:31:29.209Z,2.5
2023-05-09T00:32:38.979Z,2.3
2023-05-09T00:33:47.729Z,2.2
2023-05-09T00:34:57.460Z,1.7
2023-05-09T00:36:06.225Z,1.6
2023-05-09T00:37:15.946Z,4
2023-05-09T00:38:25.741Z,4
2023-05-09T00:39:35.508Z,2.8
2023-05-09T00:40:45.219Z,2.9
2023-05-09T00:41:54.961Z,2.8
2023-05-09T00:43:04.848Z,3
2023-05-09T00:44:13.484Z,3.6
2023-05-09T00:45:23.218Z,2.9
2023-05-09T00:46:32.039Z,2.7
2023-05-09T00:47:41.719Z,2.9
2023-05-09T00:48:51.424Z,3.1
2023-05-09T00:50:01.155Z,2.9
2023-05-09T00:51:10.912Z,3.1
2023-05-09T00:52:20.669Z,3.3
2023-05-09T00:53:30.451Z,4.2
2023-05-09T00:54:40.235Z,3.9
2023-05-09T00:55:49.974Z,3.9
2023-05-09T00:56:59.717Z,4.6
2023-05-09T00:58:09.573Z,2.5
2023-05-09T00:59:19.195Z,4
2023-05-09T01:00:28.920Z,4
2023-05-09T01:01:38.743Z,2.7
2023-05-09T01:02:48.500Z,3.8
2023-05-09T01:03:58.173Z,3
2023-05-09T01:05:06.906Z,2.4
2023-05-09T01:06:16.624Z,2.5
2023-05-09T01:07:26.371Z,2.1
2023-05-09T01:08:35.115Z,2.2
2023-05-09T01:09:44.838Z,2.6
2023-05-09T01:10:54.572Z,2.4
2023-05-09T01:12:02.337Z,3.4
2023-05-09T01:13:12.193Z,2.6
2023-05-09T01:14:21.892Z,2
2023-05-09T01:15:30.703Z,2.6
2023-05-09T01:16:40.488Z,2.2
2023-05-09T01:17:50.306Z,2.2
2023-05-09T01:18:59.943Z,3.6
2023-05-09T01:20:08.711Z,6.8
2023-05-09T01:21:18.487Z,5.5
2023-05-09T01:22:28.208Z,3.6
2023-05-09T01:23:37.931Z,2.9
2023-05-09T01:24:47.677Z,1.9
2023-05-09T01:25:57.441Z,3.2
2023-05-09T01:27:07.196Z,2.7
2023-05-09T01:28:16.055Z,2.5
2023-05-09T01:29:24.659Z,3.3
2023-05-09T01:30:33.439Z,3.1
2023-05-09T01:31:44.221Z,2.4
2023-05-09T01:32:52.866Z,2.1
2023-05-09T01:34:02.581Z,2.3
2023-05-09T01:35:12.578Z,2.7
2023-05-09T01:36:22.175Z,2.8
2023-05-09T01:37:31.908Z,2
2023-05-09T01:38:40.657Z,2.6
2023-05-09T01:39:50.378Z,2.8
2023-05-09T01:41:00.196Z,2.1
2023-05-09T01:42:09.963Z,3.2
2023-05-09T01:43:19.831Z,2.1
2023-05-09T01:44:29.513Z,1.7
2023-05-09T01:45:38.254Z,2.5
2023-05-09T01:46:47.981Z,2.3
2023-05-09T01:47:56.709Z,2.1
2023-05-09T01:49:06.440Z,2.7
2023-05-09T01:50:15.209Z,1.8
2023-05-09T01:51:24.920Z,2.6
2023-05-09T01:52:34.642Z,2.3
2023-05-09T01:53:44.368Z,2.1
2023-05-09T01:54:53.136Z,2.6
2023-05-09T01:56:02.840Z,2.7
2023-05-09T01:57:12.563Z,2.4
2023-05-09T01:58:22.474Z,2.7
2023-05-09T01:59:32.108Z,2.4
2023-05-09T02:00:41.872Z,1.9
2023-05-09T02:01:51.609Z,2.3
2023-05-09T02:03:01.490Z,2.4
2023-05-09T02:04:11.086Z,1.9
2023-05-09T02:05:20.815Z,1.8
2023-05-09T02:06:30.528Z,1.8
2023-05-09T02:07:40.438Z,2
2023-05-09T02:08:50.208Z,2.5
2023-05-09T02:09:57.943Z,2.4
2023-05-09T02:11:07.686Z,2.3
2023-05-09T02:12:17.498Z,2.3
2023-05-09T02:13:27.436Z,1.7
2023-05-09T02:14:37.031Z,2
2023-05-09T02:15:45.832Z,2.1
2023-05-09T02:16:55.602Z,2.1
2023-05-09T02:18:05.358Z,1.6
2023-05-09T02:19:14.046Z,1.8
2023-05-09T02:20:23.815Z,2.5
2023-05-09T02:21:33.507Z,1.4
2023-05-09T02:22:42.274Z,1.7
2023-05-09T02:23:51.981Z,2
2023-05-09T02:25:00.689Z,2
2023-05-09T02:26:10.399Z,2.6
2023-05-09T02:27:19.119Z,1.9
2023-05-09T02:28:28.839Z,1.3
2023-05-09T02:29:38.707Z,2.1
2023-05-09T02:30:48.314Z,2.4
2023-05-09T02:31:58.117Z,2.3
2023-05-09T02:33:07.873Z,2.1
2023-05-09T02:34:16.567Z,2.9
2023-05-09T02:35:26.320Z,2.8
2023-05-09T02:36:35.075Z,3.2
2023-05-09T02:37:44.862Z,2.9
2023-05-09T02:38:54.628Z,2.7
2023-05-09T02:40:04.359Z,3
2023-05-09T02:41:14.120Z,2.7
2023-05-09T02:42:23.847Z,3.1
2023-05-09T02:43:33.596Z,2.9
2023-05-09T02:44:43.485Z,2.5
2023-05-09T02:45:53.112Z,3.1
2023-05-09T02:47:01.825Z,2.6
2023-05-09T02:48:11.582Z,2.6
2023-05-09T02:49:31.290Z,3
2023-05-09T02:50:31.193Z,3.1
2023-05-09T02:51:40.966Z,3
2023-05-09T02:52:50.722Z,2.8
2023-05-09T02:54:00.463Z,3
2023-05-09T02:55:10.243Z,3.2
2023-05-09T02:56:19.027Z,2.7
2023-05-09T02:57:29.725Z,3.1
2023-05-09T02:58:38.569Z,2.3
2023-05-09T02:59:47.486Z,3.6
2023-05-09T03:00:57.166Z,3.3
2023-05-09T03:02:05.869Z,2.7
2023-05-09T03:03:15.656Z,3.5
2023-05-09T03:04:25.391Z,3.9
2023-05-09T03:05:35.155Z,3
2023-05-09T03:06:44.863Z,2.4
2023-05-09T03:07:53.591Z,3.4
2023-05-09T03:09:03.382Z,2.9
2023-05-09T03:10:13.116Z,3.6
2023-05-09T03:11:22.849Z,2.5
2023-05-09T03:12:32.664Z,3.2
2023-05-09T03:13:41.428Z,3
2023-05-09T03:14:51.312Z,2.9
2023-05-09T03:16:00.928Z,3
2023-05-09T03:17:09.644Z,2.5
2023-05-09T03:18:19.405Z,3.2
2023-05-09T03:19:29.217Z,2.9
2023-05-09T03:20:37.933Z,3.1
2023-05-09T03:21:47.660Z,3.5
2023-05-09T03:22:56.529Z,2.8
2023-05-09T03:24:05.318Z,2.8
2023-05-09T03:25:15.238Z,3.1
2023-05-09T03:26:24.824Z,2.6
2023-05-09T03:27:34.576Z,3.5
2023-05-09T03:28:45.338Z,2.9
2023-05-09T03:29:55.199Z,2.9
2023-05-09T03:31:04.816Z,3.2
2023-05-09T03:32:15.278Z,2.8
2023-05-09T03:33:23.322Z,2.6
2023-05-09T03:34:33.051Z,2.2
2023-05-09T03:35:41.778Z,2.3
2023-05-09T03:36:51.581Z,2.3
2023-05-09T03:38:01.345Z,2.1
2023-05-09T03:39:11.080Z,2.2
2023-05-09T03:40:20.854Z,2.4
2023-05-09T03:41:30.602Z,3
2023-05-09T03:42:40.433Z,3.5
2023-05-09T03:43:50.194Z,3.8
2023-05-09T03:44:59.126Z,4.1
2023-05-09T03:46:08.699Z,4.1
2023-05-09T03:47:17.792Z,2.9
2023-05-09T03:48:27.532Z,3.8
2023-05-09T03:49:37.299Z,3.7
2023-05-09T03:50:47.052Z,2.8
2023-05-09T03:51:56.818Z,2.6
2023-05-09T03:53:06.606Z,2.8
2023-05-09T03:54:15.354Z,4.3
2023-05-09T03:55:25.089Z,2.2
2023-05-09T03:56:34.866Z,2.7
2023-05-09T03:57:43.627Z,3.1
2023-05-09T03:58:53.452Z,3.4
2023-05-09T04:00:02.332Z,3.1
2023-05-09T04:01:11.953Z,2.9
2023-05-09T04:02:21.762Z,2.8
2023-05-09T04:03:30.479Z,3
2023-05-09T04:04:40.175Z,2.2
2023-05-09T04:05:49.960Z,2
2023-05-09T04:06:59.718Z,1.7
2023-05-09T04:08:09.457Z,2
2023-05-09T04:09:19.277Z,1.6
2023-05-09T04:10:29.058Z,2.7
2023-05-09T04:11:38.810Z,4.6
2023-05-09T04:12:48.686Z,2.2
2023-05-09T04:13:58.483Z,2.6
2023-05-09T04:15:07.378Z,6.8
2023-05-09T04:16:17.097Z,3
2023-05-09T04:17:26.856Z,2.9
2023-05-09T04:18:36.583Z,2.9
2023-05-09T04:19:46.353Z,2.3
2023-05-09T04:20:56.140Z,2.2
2023-05-09T04:22:05.872Z,2.9
2023-05-09T04:23:15.609Z,1.8
2023-05-09T04:24:23.362Z,2
2023-05-09T04:25:33.169Z,3
2023-05-09T04:26:42.906Z,2.9
2023-05-09T04:27:52.660Z,2.5
2023-05-09T04:29:02.411Z,2.4
2023-05-09T04:30:12.294Z,1.5
2023-05-09T04:31:21.949Z,2.1
2023-05-09T04:32:31.736Z,2
2023-05-09T04:33:39.439Z,1.7
2023-05-09T04:34:49.235Z,2.3
2023-05-09T04:35:58.950Z,2.1
2023-05-09T04:37:08.658Z,1.8
2023-05-09T04:38:18.387Z,2.3
2023-05-09T04:39:27.112Z,2.3
2023-05-09T04:40:36.913Z,2
2023-05-09T04:41:46.634Z,1.7
2023-05-09T04:42:54.466Z,2.7
2023-05-09T04:44:03.268Z,2.2
2023-05-09T04:45:13.283Z,2.5
2023-05-09T04:46:25.060Z,3.1
2023-05-09T04:47:33.562Z,2.1
2023-05-09T04:48:42.256Z,2.4
2023-05-09T04:49:52.017Z,2.3
2023-05-09T04:51:01.762Z,1.9
2023-05-09T04:52:09.522Z,1.8
2023-05-09T04:53:19.324Z,3.4
2023-05-09T04:54:29.040Z,2.4
2023-05-09T04:55:38.819Z,2.8
2023-05-09T04:56:50.536Z,3
2023-05-09T04:57:57.351Z,1.8
2023-05-09T04:59:07.093Z,2.1
2023-05-09T05:00:16.873Z,5
2023-05-09T05:01:26.776Z,5.2
2023-05-09T05:02:36.491Z,2.7
2023-05-09T05:03:46.231Z,2.5
2023-05-09T05:05:03.197Z,2.2
2023-05-09T05:06:06.650Z,1.9
2023-05-09T05:07:14.542Z,2.5
2023-05-09T05:08:24.279Z,1.9
2023-05-09T05:09:34.030Z,1.9
2023-05-09T05:10:43.762Z,1.9
2023-05-09T05:11:59.860Z,2.3
2023-05-09T05:13:03.378Z,2.1
2023-05-09T05:14:13.163Z,2.5
2023-05-09T05:15:22.936Z,2.4
2023-05-09T05:16:32.954Z,2.5
2023-05-09T05:17:42.503Z,3.6
2023-05-09T05:18:52.249Z,2.6
2023-05-09T05:20:02.011Z,2
2023-05-09T05:21:10.906Z,2.3
2023-05-09T05:22:20.636Z,2.2
2023-05-09T05:23:30.435Z,2.5
2023-05-09T05:24:40.268Z,3.6
2023-05-09T05:25:50.082Z,2
2023-05-09T05:26:58.786Z,1.8
2023-05-09T05:28:08.530Z,2.2
2023-05-09T05:29:18.254Z,3.2
2023-05-09T05:30:28.031Z,1.7
2023-05-09T05:31:37.978Z,2.3
2023-05-09T05:32:47.606Z,2.6
2023-05-09T05:33:57.300Z,2.2
2023-05-09T05:35:07.044Z,2.3
2023-05-09T05:36:15.797Z,2.9
2023-05-09T05:37:25.567Z,1.8
2023-05-09T05:38:34.299Z,2.9
2023-05-09T05:39:44.115Z,1.7
2023-05-09T05:40:52.892Z,1.9
2023-05-09T05:42:02.687Z,2.5
2023-05-09T05:43:12.481Z,2.4
2023-05-09T05:44:21.272Z,2.1
2023-05-09T05:45:31.097Z,2.4
2023-05-09T05:46:40.918Z,3.6
2023-05-09T05:47:49.636Z,3.3
2023-05-09T05:48:59.377Z,2.5
2023-05-09T05:50:08.190Z,3
2023-05-09T05:51:16.924Z,2.9
2023-05-09T05:52:26.679Z,3
2023-05-09T05:53:36.405Z,2.5
2023-05-09T05:54:46.178Z,1.7
2023-05-09T05:55:55.888Z,2.6
2023-05-09T05:57:04.618Z,1.4
2023-05-09T05:58:14.384Z,1.3
2023-05-09T05:59:23.136Z,1.9
2023-05-09T06:00:32.913Z,1.8
2023-05-09T06:01:42.798Z,1.8
2023-05-09T06:02:52.442Z,2.3
2023-05-09T06:04:01.149Z,2
2023-05-09T06:05:10.829Z,2.2
2023-05-09T06:06:20.562Z,2.2
2023-05-09T06:07:30.297Z,2.2
2023-05-09T06:08:40.138Z,1.9
2023-05-09T06:09:49.867Z,2.2
2023-05-09T06:10:59.643Z,1.6
2023-05-09T06:12:09.395Z,2
2023-05-09T06:13:19.467Z,1.9
2023-05-09T06:14:29.175Z,2.2
2023-05-09T06:15:39.038Z,2
2023-05-09T06:16:48.925Z,2.6
2023-05-09T06:17:58.555Z,1.7
2023-05-09T06:19:08.266Z,1.9
2023-05-09T06:20:18.017Z,2.4
2023-05-09T06:21:26.761Z,2.9
2023-05-09T06:22:36.549Z,2.7
2023-05-09T06:24:01.923Z,2
2023-05-09T06:24:57.012Z,1.7
2023-05-09T06:26:06.758Z,1.7
2023-05-09T06:27:15.506Z,1.5
2023-05-09T06:28:25.303Z,1.8
2023-05-09T06:29:34.985Z,1.7
2023-05-09T06:30:43.729Z,1.8
2023-05-09T06:31:53.548Z,1.8
2023-05-09T06:33:02.336Z,1.7
2023-05-09T06:34:12.019Z,1.4
2023-05-09T06:35:21.954Z,1.4
2023-05-09T06:36:30.721Z,1.7
2023-05-09T06:37:40.561Z,1.5
2023-05-09T06:38:50.366Z,1.4
2023-05-09T06:40:00.234Z,1.1
2023-05-09T06:41:09.924Z,1.6
2023-05-09T06:42:19.695Z,1.4
2023-05-09T06:43:29.475Z,2.2
2023-05-09T06:44:39.191Z,1.9
2023-05-09T06:45:48.007Z,1.7
2023-05-09T06:46:57.900Z,1.8
2023-05-09T06:48:07.693Z,2
2023-05-09T06:49:16.286Z,1.5
2023-05-09T06:50:26.040Z,2.1
2023-05-09T06:51:34.797Z,2.3
2023-05-09T06:52:44.533Z,1.3
2023-05-09T06:53:55.271Z,1.3
2023-05-09T06:55:05.069Z,1.3
2023-05-09T06:56:13.833Z,1.4
2023-05-09T06:57:23.569Z,2.4
2023-05-09T06:58:33.286Z,1.6
2023-05-09T06:59:43.035Z,1.6
2023-05-09T07:00:52.830Z,1.4
2023-05-09T07:02:01.669Z,1.2
2023-05-09T07:03:11.383Z,1.3
2023-05-09T07:04:21.090Z,2.6
2023-05-09T07:05:30.959Z,1.6
2023-05-09T07:06:40.599Z,2.3
2023-05-09T07:07:49.357Z,1.9
2023-05-09T07:08:59.113Z,2.1
2023-05-09T07:10:11.725Z,2
2023-05-09T07:11:19.605Z,1.7
2023-05-09T07:12:29.347Z,2.4
2023-05-09T07:13:37.157Z,2.1
2023-05-09T07:14:46.896Z,2.4
2023-05-09T07:15:56.675Z,2.3
2023-05-09T07:17:21.632Z,2
2023-05-09T07:18:17.099Z,1.8
2023-05-09T07:19:26.852Z,1.8
2023-05-09T07:20:36.608Z,1.7
2023-05-09T07:21:46.326Z,1.4
2023-05-09T07:22:54.272Z,1.4
2023-05-09T07:24:04.050Z,3.1
2023-05-09T07:25:12.925Z,2.3
2023-05-09T07:26:22.568Z,1.4
2023-05-09T07:27:32.288Z,1.9
2023-05-09T07:28:42.012Z,2.1
2023-05-09T07:29:51.809Z,1.7
2023-05-09T07:31:01.535Z,2.3
2023-05-09T07:32:11.483Z,1.3
2023-05-09T07:33:21.102Z,2.2
2023-05-09T07:34:30.838Z,2.3
2023-05-09T07:35:39.606Z,1.8
2023-05-09T07:36:49.350Z,2.5
2023-05-09T07:37:59.194Z,1.9
2023-05-09T07:39:08.912Z,2
2023-05-09T07:40:18.873Z,1.8
2023-05-09T07:41:28.477Z,2.1
2023-05-09T07:42:38.290Z,2.2
2023-05-09T07:43:48.026Z,1.6
2023-05-09T07:44:57.747Z,2.3
2023-05-09T07:46:07.526Z,1.7
2023-05-09T07:47:17.502Z,1.9
2023-05-09T07:48:27.064Z,2
2023-05-09T07:49:36.790Z,1.4
2023-05-09T07:50:45.553Z,2
2023-05-09T07:51:55.383Z,1.5
2023-05-09T07:53:05.192Z,2
2023-05-09T07:54:14.915Z,2.2
2023-05-09T07:55:24.683Z,1.7
2023-05-09T07:56:34.454Z,2.4
2023-05-09T07:57:44.263Z,1.9
2023-05-09T07:58:55.036Z,1.8
2023-05-09T08:00:03.750Z,2
2023-05-09T08:01:13.527Z,2.1
2023-05-09T08:02:23.403Z,1.7
2023-05-09T08:03:33.029Z,1.4
2023-05-09T08:04:42.794Z,2.2
2023-05-09T08:05:52.495Z,0.9
2023-05-09T08:07:02.231Z,1.6
2023-05-09T08:08:11.966Z,1.5
2023-05-09T08:09:22.718Z,2
2023-05-09T08:10:32.467Z,1.4
2023-05-09T08:11:41.327Z,1.4
2023-05-09T08:12:50.109Z,1.8
2023-05-09T08:13:59.845Z,0.9
2023-05-09T08:15:09.631Z,1.7
2023-05-09T08:16:19.378Z,1.6
2023-05-09T08:17:28.204Z,1.6
2023-05-09T08:18:35.796Z,2
2023-05-09T08:19:45.524Z,1.6
2023-05-09T08:20:55.246Z,1.8
2023-05-09T08:22:03.964Z,1.1
2023-05-09T08:23:13.682Z,2
2023-05-09T08:24:23.461Z,1.3
2023-05-09T08:25:33.194Z,1.8
2023-05-09T08:26:42.932Z,1.2
2023-05-09T08:27:53.167Z,2
2023-05-09T08:29:02.468Z,1.2
2023-05-09T08:30:11.144Z,1.7
2023-05-09T08:31:20.885Z,1.8
2023-05-09T08:32:30.698Z,1.3
2023-05-09T08:33:41.853Z,1.9
2023-05-09T08:34:50.157Z,0.6
2023-05-09T08:35:59.910Z,1.6
2023-05-09T08:37:08.634Z,1.7
2023-05-09T08:38:18.389Z,1.7
2023-05-09T08:39:28.106Z,1.5
2023-05-09T08:40:37.828Z,1.3
2023-05-09T08:41:47.657Z,1.6
2023-05-09T08:42:57.425Z,1
2023-05-09T08:44:07.185Z,2.1
2023-05-09T08:45:16.014Z,1.5
2023-05-09T08:46:25.775Z,1.8
2023-05-09T08:47:35.566Z,1.7
2023-05-09T08:48:45.396Z,1
2023-05-09T08:49:54.033Z,1.3
2023-05-09T08:51:03.734Z,0.8
2023-05-09T08:52:13.490Z,1.5
2023-05-09T08:53:23.255Z,1.2
2023-05-09T08:54:32.981Z,1.5
2023-05-09T08:55:42.685Z,1.6
2023-05-09T08:56:52.480Z,1.1
2023-05-09T08:58:02.200Z,1.9
2023-05-09T08:59:10.940Z,1
2023-05-09T09:00:21.058Z,2
2023-05-09T09:01:29.440Z,1.1
2023-05-09T09:02:39.239Z,1.8
2023-05-09T09:03:49.068Z,1
2023-05-09T09:04:58.726Z,1.4
2023-05-09T09:06:08.474Z,1.9
2023-05-09T09:07:18.246Z,1.1
2023-05-09T09:08:27.984Z,2.6
2023-05-09T09:09:37.782Z,0.9
2023-05-09T09:10:46.604Z,2
2023-05-09T09:11:56.316Z,1.3
2023-05-09T09:13:06.073Z,1.1
2023-05-09T09:14:15.792Z,1.6
2023-05-09T09:15:25.602Z,1.3
2023-05-09T09:16:34.327Z,2.5
2023-05-09T09:17:44.093Z,1.4
2023-05-09T09:18:53.950Z,1.5
2023-05-09T09:20:03.567Z,1.5
2023-05-09T09:21:13.300Z,1.6
2023-05-09T09:22:23.043Z,1.1
2023-05-09T09:23:32.787Z,1.1
2023-05-09T09:24:42.532Z,1.4
2023-05-09T09:25:52.317Z,1.1
2023-05-09T09:27:02.070Z,1.6
2023-05-09T09:28:11.843Z,0.6
2023-05-09T09:29:20.614Z,1.5
2023-05-09T09:30:30.322Z,2
2023-05-09T09:31:41.092Z,1.6
2023-05-09T09:32:50.858Z,1.7
2023-05-09T09:34:00.731Z,1.5
2023-05-09T09:35:10.378Z,1.6
2023-05-09T09:36:20.121Z,0.9
2023-05-09T09:37:28.839Z,1.9
2023-05-09T09:38:38.645Z,2.1
2023-05-09T09:39:48.398Z,2.7
2023-05-09T09:40:58.120Z,1.8
2023-05-09T09:42:07.825Z,1.7
2023-05-09T09:43:17.644Z,2.6
2023-05-09T09:44:26.388Z,1.2
2023-05-09T09:45:36.212Z,1.9
2023-05-09T09:46:44.923Z,0.6
2023-05-09T09:47:54.820Z,1.6
2023-05-09T09:49:04.634Z,1.9
2023-05-09T09:50:13.441Z,0.9
2023-05-09T09:51:22.994Z,1.9
2023-05-09T09:52:32.782Z,1.2
2023-05-09T09:53:42.534Z,1.5
2023-05-09T09:54:52.297Z,0.9
2023-05-09T09:56:01.026Z,1.9
2023-05-09T09:57:10.827Z,1.2
2023-05-09T09:58:20.624Z,1.3
2023-05-09T09:59:28.356Z,0.9
2023-05-09T10:00:38.089Z,0.9
2023-05-09T10:01:47.898Z,1.6
2023-05-09T10:02:57.774Z,0.5
2023-05-09T10:04:07.430Z,2.7
2023-05-09T10:05:17.217Z,1
2023-05-09T10:06:26.934Z,2.3
2023-05-09T10:07:36.721Z,1.7
2023-05-09T10:08:46.474Z,1.5
2023-05-09T10:09:56.248Z,2.3
2023-05-09T10:11:06.034Z,0.8
2023-05-09T10:12:14.824Z,1.6
2023-05-09T10:13:24.578Z,1
2023-05-09T10:14:35.078Z,1.8
2023-05-09T10:15:52.759Z,1.1
2023-05-09T10:16:55.020Z,1.2
2023-05-09T10:18:04.815Z,1.2
2023-05-09T10:19:14.500Z,0.9
2023-05-09T10:20:23.214Z,1
2023-05-09T10:21:33.001Z,0.7
2023-05-09T10:22:42.745Z,1.2
2023-05-09T10:23:52.533Z,1
2023-05-09T10:25:02.318Z,1.2
2023-05-09T10:26:12.029Z,0.8
2023-05-09T10:27:20.752Z,1.2
2023-05-09T10:28:30.483Z,1.2
2023-05-09T10:29:39.261Z,0.9
2023-05-09T10:30:48.995Z,1.2
2023-05-09T10:31:58.728Z,0.8
2023-05-09T10:33:08.482Z,1.3
2023-05-09T10:34:18.367Z,1.3
2023-05-09T10:35:27.973Z,1.6
2023-05-09T10:36:37.749Z,0.8
2023-05-09T10:37:47.471Z,1.2
2023-05-09T10:38:57.248Z,0.8
2023-05-09T10:40:05.994Z,1
2023-05-09T10:41:15.765Z,0.8
2023-05-09T10:42:25.506Z,1.2
2023-05-09T10:43:36.741Z,0.8
2023-05-09T10:44:46.086Z,0.9
2023-05-09T10:45:54.821Z,0.7
2023-05-09T10:47:04.658Z,0.9
2023-05-09T10:48:13.367Z,1.3
2023-05-09T10:49:23.209Z,1.4
2023-05-09T10:50:32.857Z,1.7
2023-05-09T10:51:42.552Z,1.2
2023-05-09T10:52:52.323Z,1.8
2023-05-09T10:54:02.095Z,1.2
2023-05-09T10:55:10.854Z,1.8
2023-05-09T10:56:20.583Z,0.8
2023-05-09T10:57:30.380Z,1.4
2023-05-09T10:58:40.145Z,1.4
2023-05-09T10:59:49.926Z,1.5
2023-05-09T11:00:58.769Z,1.7
2023-05-09T11:02:07.551Z,1.3
2023-05-09T11:03:17.377Z,2.2
2023-05-09T11:04:26.300Z,1.4
2023-05-09T11:05:35.952Z,2.3
2023-05-09T11:06:45.701Z,1.7
2023-05-09T11:07:55.512Z,2
2023-05-09T11:09:05.259Z,2
2023-05-09T11:10:15.031Z,1.7
2023-05-09T11:11:23.836Z,2
2023-05-09T11:12:33.679Z,1.4
2023-05-09T11:13:42.444Z,1.8
2023-05-09T11:14:52.232Z,1.5
2023-05-09T11:16:01.078Z,1.8
2023-05-09T11:17:10.807Z,1.9
2023-05-09T11:18:20.539Z,2.2
2023-05-09T11:19:29.461Z,1.9
2023-05-09T11:20:39.063Z,1.4
2023-05-09T11:21:48.856Z,1.7
2023-05-09T11:22:56.657Z,1.8
2023-05-09T11:24:06.414Z,2.6
2023-05-09T11:25:16.356Z,1.5
2023-05-09T11:26:25.993Z,2.6
2023-05-09T11:27:35.708Z,1.5
2023-05-09T11:28:44.470Z,1.8
2023-05-09T11:29:54.208Z,1.4
2023-05-09T11:31:03.977Z,2.2
2023-05-09T11:32:12.770Z,1.9
2023-05-09T11:33:22.471Z,2.3
2023-05-09T11:34:32.275Z,1.6
2023-05-09T11:35:41.900Z,1.7
2023-05-09T11:36:50.636Z,1.8
2023-05-09T11:38:00.428Z,2.1
2023-05-09T11:39:10.127Z,1.7
2023-05-09T11:40:19.911Z,1.8
2023-05-09T11:41:29.595Z,2.2
2023-05-09T11:42:39.329Z,1.5
2023-05-09T11:43:48.048Z,1.9
2023-05-09T11:44:57.835Z,1.9
2023-05-09T11:46:06.622Z,1.6
2023-05-09T11:47:16.316Z,1.7
2023-05-09T11:48:26.057Z,1.8
2023-05-09T11:49:35.942Z,1.5
2023-05-09T11:50:44.588Z,1.6
2023-05-09T11:51:54.341Z,1.2
2023-05-09T11:53:04.083Z,1.7
2023-05-09T11:54:14.970Z,1.4
2023-05-09T11:55:24.650Z,1.6
2023-05-09T11:56:34.362Z,1.4
2023-05-09T11:57:44.099Z,1.7
2023-05-09T11:58:53.863Z,1.3
2023-05-09T12:00:03.638Z,1.9
2023-05-09T12:01:13.400Z,1.3
2023-05-09T12:02:23.224Z,1.9
2023-05-09T12:03:32.945Z,2
2023-05-09T12:04:43.038Z,1.7
2023-05-09T12:05:52.487Z,1.5
2023-05-09T12:07:02.264Z,2.7
2023-05-09T12:08:12.033Z,2.5
2023-05-09T12:09:21.856Z,2.4
2023-05-09T12:10:31.633Z,2.2
2023-05-09T12:11:40.381Z,1.7
2023-05-09T12:12:50.178Z,2.8
2023-05-09T12:13:59.958Z,1.7
2023-05-09T12:15:09.724Z,2.1
2023-05-09T12:16:19.652Z,1.4
2023-05-09T12:17:28.414Z,3.4
2023-05-09T12:18:37.206Z,1.8
2023-05-09T12:19:47.082Z,2.7
2023-05-09T12:20:56.743Z,2.2
2023-05-09T12:22:06.592Z,2.1
2023-05-09T12:23:16.359Z,1.6
2023-05-09T12:24:25.074Z,1.6
2023-05-09T12:25:34.826Z,2.2
2023-05-09T12:26:44.640Z,1.5
2023-05-09T12:27:53.417Z,2.3
2023-05-09T12:29:03.184Z,1.2
2023-05-09T12:30:11.911Z,2.2
2023-05-09T12:31:20.688Z,1.3
2023-05-09T12:32:29.424Z,2.3
2023-05-09T12:33:38.113Z,1.6
2023-05-09T12:34:46.893Z,2.4
2023-05-09T12:35:55.771Z,1.7
2023-05-09T12:37:04.416Z,2.2
2023-05-09T12:38:14.204Z,1.4
2023-05-09T12:39:22.920Z,2.5
2023-05-09T12:40:32.683Z,1.7
2023-05-09T12:41:50.102Z,1.8
2023-05-09T12:42:52.166Z,1.4
2023-05-09T12:44:02.018Z,1.4
2023-05-09T12:45:11.794Z,1.5
2023-05-09T12:46:21.612Z,2.1
2023-05-09T12:47:31.365Z,1.4
2023-05-09T12:48:41.005Z,2
2023-05-09T12:49:50.757Z,1.5
2023-05-09T12:51:00.727Z,1.6
2023-05-09T12:52:10.461Z,1.2
2023-05-09T12:53:20.135Z,2.2
2023-05-09T12:54:29.845Z,0.7
2023-05-09T12:55:38.599Z,1.8
2023-05-09T12:56:48.355Z,1.4
2023-05-09T12:57:57.100Z,2.1
2023-05-09T12:59:06.887Z,1.4
2023-05-09T13:00:16.737Z,1.9
2023-05-09T13:01:26.550Z,1.1
2023-05-09T13:02:36.281Z,1.9
2023-05-09T13:03:45.011Z,1.1
2023-05-09T13:04:53.730Z,2.2
2023-05-09T13:06:03.620Z,1.1
2023-05-09T13:07:13.292Z,1.9
2023-05-09T13:08:22.997Z,1.3
2023-05-09T13:09:32.748Z,2
2023-05-09T13:10:42.523Z,1.2
2023-05-09T13:11:52.263Z,1.4
2023-05-09T13:13:02.006Z,1.7
2023-05-09T13:14:11.795Z,1.4
2023-05-09T13:15:21.622Z,2
2023-05-09T13:16:31.425Z,1.7
2023-05-09T13:17:41.181Z,1.9
2023-05-09T13:18:50.939Z,1.7
2023-05-09T13:19:59.651Z,1.6
2023-05-09T13:21:09.507Z,1.2
2023-05-09T13:22:19.109Z,1.7
2023-05-09T13:23:28.887Z,0.8
2023-05-09T13:24:38.646Z,1.8
2023-05-09T13:25:48.429Z,1.3
2023-05-09T13:26:58.125Z,1.8
2023-05-09T13:28:07.835Z,1.4
2023-05-09T13:29:15.642Z,1.7
2023-05-09T13:30:25.445Z,1.6
2023-05-09T13:31:35.124Z,1.7
2023-05-09T13:32:44.918Z,1.8
2023-05-09T13:33:54.635Z,1.4
2023-05-09T13:35:04.390Z,1.7
2023-05-09T13:36:14.226Z,0.9
2023-05-09T13:37:22.937Z,1.8
2023-05-09T13:38:32.751Z,1
2023-05-09T13:39:42.490Z,1.8
2023-05-09T13:40:51.251Z,1.4
2023-05-09T13:42:01.017Z,1.9
2023-05-09T13:43:10.768Z,1.1
2023-05-09T13:44:20.481Z,1.8
2023-05-09T13:45:30.368Z,1.3
2023-05-09T13:46:40.163Z,1.3
2023-05-09T13:47:49.907Z,1.6
2023-05-09T13:48:59.611Z,1.9
2023-05-09T13:50:08.370Z,1.6
2023-05-09T13:51:18.227Z,1
2023-05-09T13:52:27.830Z,1.9
2023-05-09T13:53:39.097Z,1
2023-05-09T13:54:48.276Z,2.1
2023-05-09T13:55:57.013Z,1.5
2023-05-09T13:57:06.782Z,2
2023-05-09T13:58:16.661Z,2.1
2023-05-09T13:59:26.390Z,1
2023-05-09T14:00:36.216Z,2
2023-05-09T14:01:45.023Z,0.9
2023-05-09T14:02:53.772Z,2.7
2023-05-09T14:04:03.484Z,0.9
2023-05-09T14:05:14.236Z,1.6
2023-05-09T14:06:24.079Z,1.4
2023-05-09T14:07:32.700Z,1.8
2023-05-09T14:08:41.423Z,1.9
2023-05-09T14:09:54.153Z,1.2
2023-05-09T14:11:00.875Z,2.1
2023-05-09T14:12:10.590Z,2.4
2023-05-09T14:13:20.412Z,1.1
2023-05-09T14:14:30.197Z,2.6
2023-05-09T14:15:40.019Z,1.7
2023-05-09T14:16:48.735Z,2.7
2023-05-09T14:17:58.535Z,18.9
2023-05-09T14:19:08.179Z,1.8
2023-05-09T14:20:17.064Z,2.3
2023-05-09T14:21:26.823Z,2.3
2023-05-09T14:22:36.437Z,3.1
2023-05-09T14:23:46.250Z,2
2023-05-09T14:24:56.039Z,2
2023-05-09T14:26:05.879Z,3.2
2023-05-09T14:29:02.231Z,2.8
2023-05-09T14:30:11.954Z,2.6
2023-05-09T14:31:21.712Z,1.2
2023-05-09T14:32:31.413Z,2.2
2023-05-09T14:33:40.181Z,2.1
2023-05-09T14:34:49.934Z,2.3
2023-05-09T14:35:59.646Z,2.1
2023-05-09T14:37:08.528Z,1.2
2023-05-09T14:38:18.196Z,2.6
2023-05-09T14:39:26.924Z,1.9
2023-05-09T14:40:36.649Z,3
2023-05-09T14:41:46.421Z,2.3
2023-05-09T14:42:55.241Z,1.3
2023-05-09T14:44:04.955Z,2.1
2023-05-09T14:45:13.669Z,1.4
2023-05-09T14:46:22.424Z,2.6
2023-05-09T14:47:32.205Z,2.5
2023-05-09T14:48:40.901Z,1.1
2023-05-09T14:49:50.619Z,2.1
2023-05-09T14:51:00.306Z,2.2
2023-05-09T14:52:10.322Z,1.4
2023-05-09T14:53:19.866Z,2.5
2023-05-09T14:54:28.650Z,1.3
2023-05-09T14:55:38.380Z,2.3
2023-05-09T14:56:48.113Z,2.3
2023-05-09T14:57:56.961Z,1.1
2023-05-09T14:59:06.745Z,14.3
2023-05-09T15:00:21.011Z,8.1
2023-05-09T15:01:26.267Z,2.8
2023-05-09T15:02:36.031Z,4.2
2023-05-09T15:03:45.739Z,1.7
2023-05-09T15:04:54.491Z,2.8
2023-05-09T15:06:04.280Z,1.3
2023-05-09T15:07:13.182Z,1.5
2023-05-09T15:08:22.768Z,6
2023-05-09T15:09:32.509Z,4.1
2023-05-09T15:10:42.336Z,10.8
2023-05-09T15:11:52.132Z,2.3
2023-05-09T15:13:03.222Z,3.9
2023-05-09T15:14:12.638Z,2.3
2023-05-09T15:15:22.450Z,1.5
2023-05-09T15:16:32.276Z,2.4
2023-05-09T15:17:41.949Z,0.5
2023-05-09T15:18:50.698Z,1.9
2023-05-09T15:20:00.482Z,2.2
2023-05-09T15:21:10.208Z,1.6
2023-05-09T15:22:20.091Z,1.9
2023-05-09T15:23:28.758Z,1.2
2023-05-09T15:24:38.506Z,2.1
2023-05-09T15:25:46.347Z,2.4
2023-05-09T15:26:56.061Z,4.2
2023-05-09T15:28:05.781Z,5.1
2023-05-09T15:29:15.558Z,6.9
2023-05-09T15:30:25.279Z,13.4
2023-05-09T15:31:35.080Z,1.7
2023-05-09T15:32:45.979Z,1.4
2023-05-09T15:33:54.680Z,38.700001
2023-05-09T15:35:04.447Z,1.8
2023-05-09T15:36:14.176Z,1.9
2023-05-09T15:37:24.140Z,0.9
2023-05-09T15:38:33.774Z,2.2
2023-05-09T15:39:43.558Z,1.6
2023-05-09T15:40:53.288Z,1.5
2023-05-09T15:42:02.997Z,1.9
2023-05-09T15:43:12.789Z,1
2023-05-09T15:44:21.558Z,2
2023-05-09T15:45:31.363Z,0.9
2023-05-09T15:46:41.181Z,1.8
2023-05-09T15:47:50.794Z,1.7
2023-05-09T15:49:00.570Z,1.4
2023-05-09T15:50:09.314Z,2.5
2023-05-09T15:51:19.022Z,193.1
2023-05-09T15:52:28.859Z,109.59999
2023-05-09T15:53:38.705Z,426.1
2023-05-09T15:54:48.487Z,811.09997
2023-05-09T15:55:58.211Z,234.3
2023-05-09T15:57:07.918Z,442.1
2023-05-09T15:58:17.679Z,17.4
2023-05-09T15:59:27.447Z,274
2023-05-09T16:00:37.236Z,162.1
2023-05-09T16:01:47.009Z,179
2023-05-09T16:02:56.845Z,232.5
2023-05-09T16:04:06.531Z,89.900002